sensor_id;sensor_type;location;lat;lon;timestamp;pressure;altitude;pressure_sealevel;temperature;humidity
12789;BME280;6458;42.710;23.192;2024-02-26T00:00:40;93395.06;;;7.97;100.00
12789;BME280;6458;42.710;23.192;2024-02-26T00:03:09;93383.50;;;8.05;100.00
12789;BME280;6458;42.710;23.192;2024-02-26T00:05:36;93388.97;;;8.18;100.00
12789;BME280;6458;42.710;23.192;2024-02-26T00:08:04;93387.56;;;8.30;100.00
12789;BME280;6458;42.710;23.192;2024-02-26T00:10:32;93387.22;;;8.38;100.00
12789;BME280;6458;42.710;23.192;2024-02-26T00:12:59;93378.38;;;8.43;100.00
12789;BME280;6458;42.710;23.192;2024-02-26T00:15:26;93370.53;;;8.45;100.00
12789;BME280;6458;42.710;23.192;2024-02-26T00:17:53;93372.38;;;8.43;100.00
12789;BME280;6458;42.710;23.192;2024-02-26T00:20:21;93381.88;;;8.42;100.00
12789;BME280;6458;42.710;23.192;2024-02-26T00:22:48;93374.19;;;8.41;100.00
12789;BME280;6458;42.710;23.192;2024-02-26T00:25:15;93376.44;;;8.48;100.00
12789;BME280;6458;42.710;23.192;2024-02-26T00:27:42;93384.09;;;8.50;100.00
12789;BME280;6458;42.710;23.192;2024-02-26T00:30:10;93379.91;;;8.47;100.00
12789;BME280;6458;42.710;23.192;2024-02-26T00:32:37;93377.97;;;8.52;100.00
12789;BME280;6458;42.710;23.192;2024-02-26T00:35:05;93364.34;;;8.49;100.00
12789;BME280;6458;42.710;23.192;2024-02-26T00:37:33;93366.63;;;8.55;100.00
12789;BME280;6458;42.710;23.192;2024-02-26T00:40:03;93366.63;;;8.55;100.00
12789;BME280;6458;42.710;23.192;2024-02-26T00:42:30;93366.50;;;8.39;100.00
12789;BME280;6458;42.710;23.192;2024-02-26T00:44:57;93366.94;;;7.90;100.00
12789;BME280;6458;42.710;23.192;2024-02-26T00:47:23;93369.06;;;8.01;100.00
12789;BME280;6458;42.710;23.192;2024-02-26T00:49:50;93357.13;;;8.18;100.00
12789;BME280;6458;42.710;23.192;2024-02-26T00:52:17;93347.84;;;8.32;100.00
12789;BME280;6458;42.710;23.192;2024-02-26T00:54:46;93347.63;;;8.37;100.00
12789;BME280;6458;42.710;23.192;2024-02-26T00:57:12;93343.66;;;8.49;100.00
12789;BME280;6458;42.710;23.192;2024-02-26T00:59:40;93350.44;;;8.51;100.00
12789;BME280;6458;42.710;23.192;2024-02-26T01:02:07;93351.03;;;8.56;100.00
12789;BME280;6458;42.710;23.192;2024-02-26T01:04:33;93353.34;;;8.63;100.00
12789;BME280;6458;42.710;23.192;2024-02-26T01:07:00;93349.41;;;8.73;100.00
12789;BME280;6458;42.710;23.192;2024-02-26T01:09:28;93347.44;;;8.78;100.00
12789;BME280;6458;42.710;23.192;2024-02-26T01:11:57;93342.81;;;8.85;100.00
12789;BME280;6458;42.710;23.192;2024-02-26T01:14:24;93344.91;;;8.95;100.00
12789;BME280;6458;42.710;23.192;2024-02-26T01:16:51;93345.94;;;8.91;100.00
12789;BME280;6458;42.710;23.192;2024-02-26T01:19:18;93347.69;;;8.91;100.00
12789;BME280;6458;42.710;23.192;2024-02-26T01:25:08;93334.69;;;8.92;100.00
12789;BME280;6458;42.710;23.192;2024-02-26T01:27:37;93332.47;;;8.85;100.00
12789;BME280;6458;42.710;23.192;2024-02-26T01:30:07;93337.44;;;8.89;100.00
12789;BME280;6458;42.710;23.192;2024-02-26T01:32:34;93329.53;;;8.92;100.00
12789;BME280;6458;42.710;23.192;2024-02-26T01:35:02;93328.59;;;8.93;100.00
12789;BME280;6458;42.710;23.192;2024-02-26T01:37:30;93334.38;;;8.98;100.00
12789;BME280;6458;42.710;23.192;2024-02-26T01:39:57;93329.38;;;8.95;100.00
12789;BME280;6458;42.710;23.192;2024-02-26T01:42:24;93331.03;;;8.96;100.00
12789;BME280;6458;42.710;23.192;2024-02-26T01:44:52;93332.13;;;8.92;100.00
12789;BME280;6458;42.710;23.192;2024-02-26T01:47:19;93332.13;;;8.92;100.00
12789;BME280;6458;42.710;23.192;2024-02-26T01:49:46;93334.22;;;9.01;100.00
12789;BME280;6458;42.710;23.192;2024-02-26T01:52:14;93331.72;;;9.00;100.00
12789;BME280;6458;42.710;23.192;2024-02-26T01:54:43;93335.00;;;8.86;100.00
12789;BME280;6458;42.710;23.192;2024-02-26T01:57:12;93323.88;;;8.84;100.00
12789;BME280;6458;42.710;23.192;2024-02-26T01:59:41;93334.06;;;8.87;100.00
12789;BME280;6458;42.710;23.192;2024-02-26T02:02:11;93328.81;;;8.89;100.00
12789;BME280;6458;42.710;23.192;2024-02-26T02:04:39;93326.16;;;8.90;100.00
12789;BME280;6458;42.710;23.192;2024-02-26T02:07:06;93329.38;;;8.95;100.00
12789;BME280;6458;42.710;23.192;2024-02-26T02:09:33;93328.31;;;8.99;100.00
12789;BME280;6458;42.710;23.192;2024-02-26T02:12:00;93327.16;;;8.88;100.00
12789;BME280;6458;42.710;23.192;2024-02-26T02:14:27;93315.03;;;8.88;100.00
12789;BME280;6458;42.710;23.192;2024-02-26T02:16:58;93317.63;;;8.71;100.00
12789;BME280;6458;42.710;23.192;2024-02-26T02:19:26;93319.72;;;8.63;100.00
12789;BME280;6458;42.710;23.192;2024-02-26T02:21:55;93321.88;;;8.54;100.00
12789;BME280;6458;42.710;23.192;2024-02-26T02:24:22;93311.88;;;8.47;100.00
12789;BME280;6458;42.710;23.192;2024-02-26T02:26:48;93317.88;;;8.47;100.00
12789;BME280;6458;42.710;23.192;2024-02-26T02:29:19;93321.16;;;8.51;100.00
12789;BME280;6458;42.710;23.192;2024-02-26T02:31:46;93319.78;;;8.44;100.00
12789;BME280;6458;42.710;23.192;2024-02-26T02:34:14;93313.19;;;8.36;100.00
12789;BME280;6458;42.710;23.192;2024-02-26T02:36:49;93310.59;;;8.36;100.00
12789;BME280;6458;42.710;23.192;2024-02-26T02:39:17;93315.09;;;8.52;100.00
12789;BME280;6458;42.710;23.192;2024-02-26T02:41:44;93309.69;;;8.56;100.00
12789;BME280;6458;42.710;23.192;2024-02-26T02:44:11;93313.78;;;8.61;100.00
12789;BME280;6458;42.710;23.192;2024-02-26T02:46:38;93324.84;;;8.64;100.00
12789;BME280;6458;42.710;23.192;2024-02-26T02:49:08;93317.78;;;8.68;100.00
12789;BME280;6458;42.710;23.192;2024-02-26T02:51:35;93318.81;;;8.64;100.00
12789;BME280;6458;42.710;23.192;2024-02-26T02:54:03;93325.13;;;8.58;100.00
12789;BME280;6458;42.710;23.192;2024-02-26T02:56:31;93329.28;;;8.61;100.00
12789;BME280;6458;42.710;23.192;2024-02-26T02:58:58;93329.88;;;8.67;100.00
12789;BME280;6458;42.710;23.192;2024-02-26T03:01:26;93327.97;;;8.71;100.00
12789;BME280;6458;42.710;23.192;2024-02-26T03:03:53;93332.63;;;8.81;100.00
12789;BME280;6458;42.710;23.192;2024-02-26T03:06:20;93326.31;;;8.87;100.00
12789;BME280;6458;42.710;23.192;2024-02-26T03:08:48;93329.38;;;8.95;100.00
12789;BME280;6458;42.710;23.192;2024-02-26T03:11:15;93329.97;;;9.00;100.00
12789;BME280;6458;42.710;23.192;2024-02-26T03:13:46;93327.53;;;8.97;100.00
12789;BME280;6458;42.710;23.192;2024-02-26T03:16:13;93330.75;;;9.02;100.00
12789;BME280;6458;42.710;23.192;2024-02-26T03:18:40;93332.19;;;9.08;100.00
12789;BME280;6458;42.710;23.192;2024-02-26T03:21:09;93329.75;;;9.05;100.00
12789;BME280;6458;42.710;23.192;2024-02-26T03:23:36;93323.88;;;9.01;100.00
12789;BME280;6458;42.710;23.192;2024-02-26T03:26:03;93327.53;;;8.97;100.00
12789;BME280;6458;42.710;23.192;2024-02-26T03:28:31;93317.47;;;8.91;100.00
12789;BME280;6458;42.710;23.192;2024-02-26T03:31:01;93312.09;;;8.96;100.00
12789;BME280;6458;42.710;23.192;2024-02-26T03:33:27;93309.28;;;9.00;100.00
12789;BME280;6458;42.710;23.192;2024-02-26T03:35:54;93306.53;;;9.03;100.00
12789;BME280;6458;42.710;23.192;2024-02-26T03:38:21;76280.44;;;9.08;100.00
12789;BME280;6458;42.710;23.192;2024-02-26T03:40:51;57554.78;;;-144.77;100.00
12789;BME280;6458;42.710;23.192;2024-02-26T03:43:18;57554.78;;;-144.77;100.00
12789;BME280;6458;42.710;23.192;2024-02-26T03:45:45;57554.78;;;-144.77;100.00
12789;BME280;6458;42.710;23.192;2024-02-26T03:48:13;57554.78;;;-144.77;100.00
12789;BME280;6458;42.710;23.192;2024-02-26T03:50:40;57554.78;;;-144.77;100.00
12789;BME280;6458;42.710;23.192;2024-02-26T03:53:10;57554.78;;;-144.77;100.00
12789;BME280;6458;42.710;23.192;2024-02-26T03:55:38;57554.78;;;-144.77;100.00
12789;BME280;6458;42.710;23.192;2024-02-26T03:58:07;57554.78;;;-144.77;100.00
12789;BME280;6458;42.710;23.192;2024-02-26T04:00:34;57554.78;;;-144.77;100.00
12789;BME280;6458;42.710;23.192;2024-02-26T04:03:02;57554.78;;;-144.77;100.00
12789;BME280;6458;42.710;23.192;2024-02-26T04:05:31;57554.78;;;-144.77;100.00
12789;BME280;6458;42.710;23.192;2024-02-26T04:07:58;57554.78;;;-144.77;100.00
12789;BME280;6458;42.710;23.192;2024-02-26T04:10:28;57554.78;;;-144.77;100.00
12789;BME280;6458;42.710;23.192;2024-02-26T04:12:54;57554.78;;;-144.77;100.00
12789;BME280;6458;42.710;23.192;2024-02-26T04:15:21;57554.78;;;-144.77;100.00
12789;BME280;6458;42.710;23.192;2024-02-26T04:17:48;57554.78;;;-144.77;100.00
12789;BME280;6458;42.710;23.192;2024-02-26T04:20:15;57554.78;;;-144.77;100.00
12789;BME280;6458;42.710;23.192;2024-02-26T04:22:44;57554.78;;;-144.77;100.00
12789;BME280;6458;42.710;23.192;2024-02-26T04:25:11;57554.78;;;-144.77;100.00
12789;BME280;6458;42.710;23.192;2024-02-26T04:27:39;57554.78;;;-144.77;100.00
12789;BME280;6458;42.710;23.192;2024-02-26T04:30:07;57554.78;;;-144.77;100.00
12789;BME280;6458;42.710;23.192;2024-02-26T04:32:34;57554.78;;;-144.77;100.00
12789;BME280;6458;42.710;23.192;2024-02-26T04:35:02;57554.78;;;-144.77;100.00
12789;BME280;6458;42.710;23.192;2024-02-26T04:37:29;57554.78;;;-144.77;100.00
12789;BME280;6458;42.710;23.192;2024-02-26T04:39:59;57554.78;;;-144.77;100.00
12789;BME280;6458;42.710;23.192;2024-02-26T04:42:26;57554.78;;;-144.77;100.00
12789;BME280;6458;42.710;23.192;2024-02-26T04:44:54;57554.78;;;-144.77;100.00
12789;BME280;6458;42.710;23.192;2024-02-26T04:47:21;57554.78;;;-144.77;100.00
12789;BME280;6458;42.710;23.192;2024-02-26T04:49:49;57554.78;;;-144.77;100.00
12789;BME280;6458;42.710;23.192;2024-02-26T04:52:16;57554.78;;;-144.77;100.00
12789;BME280;6458;42.710;23.192;2024-02-26T04:54:44;57554.78;;;-144.77;100.00
12789;BME280;6458;42.710;23.192;2024-02-26T04:57:13;57554.78;;;-144.77;100.00
12789;BME280;6458;42.710;23.192;2024-02-26T04:59:40;57554.78;;;-144.77;100.00
12789;BME280;6458;42.710;23.192;2024-02-26T05:02:07;57554.78;;;-144.77;100.00
12789;BME280;6458;42.710;23.192;2024-02-26T05:04:35;57554.78;;;-144.77;100.00
12789;BME280;6458;42.710;23.192;2024-02-26T05:07:02;57554.78;;;-144.77;100.00
12789;BME280;6458;42.710;23.192;2024-02-26T05:09:29;57554.78;;;-144.77;100.00
12789;BME280;6458;42.710;23.192;2024-02-26T05:11:56;57554.78;;;-144.77;100.00
12789;BME280;6458;42.710;23.192;2024-02-26T05:14:24;57554.78;;;-144.77;100.00
12789;BME280;6458;42.710;23.192;2024-02-26T05:16:51;57554.78;;;-144.77;100.00
12789;BME280;6458;42.710;23.192;2024-02-26T05:19:18;57554.78;;;-144.77;100.00
12789;BME280;6458;42.710;23.192;2024-02-26T05:21:45;57554.78;;;-144.77;100.00
12789;BME280;6458;42.710;23.192;2024-02-26T05:24:14;57554.78;;;-144.77;100.00
12789;BME280;6458;42.710;23.192;2024-02-26T05:26:42;57554.78;;;-144.77;100.00
12789;BME280;6458;42.710;23.192;2024-02-26T05:29:09;57554.78;;;-144.77;100.00
12789;BME280;6458;42.710;23.192;2024-02-26T05:31:38;57554.78;;;-144.77;100.00
12789;BME280;6458;42.710;23.192;2024-02-26T05:34:05;57554.78;;;-144.77;100.00
12789;BME280;6458;42.710;23.192;2024-02-26T05:36:32;57554.78;;;-144.77;100.00
12789;BME280;6458;42.710;23.192;2024-02-26T05:38:59;57554.78;;;-144.77;100.00
12789;BME280;6458;42.710;23.192;2024-02-26T05:41:27;57554.78;;;-144.77;100.00
12789;BME280;6458;42.710;23.192;2024-02-26T05:43:54;57554.78;;;-144.77;100.00
12789;BME280;6458;42.710;23.192;2024-02-26T05:46:21;57554.78;;;-144.77;100.00
12789;BME280;6458;42.710;23.192;2024-02-26T05:48:51;57554.78;;;-144.77;100.00
12789;BME280;6458;42.710;23.192;2024-02-26T05:51:18;57554.78;;;-144.77;100.00
12789;BME280;6458;42.710;23.192;2024-02-26T05:53:45;57554.78;;;-144.77;100.00
12789;BME280;6458;42.710;23.192;2024-02-26T05:56:12;57554.78;;;-144.77;100.00
12789;BME280;6458;42.710;23.192;2024-02-26T05:58:39;57554.78;;;-144.77;100.00
12789;BME280;6458;42.710;23.192;2024-02-26T06:01:06;57554.78;;;-144.77;100.00
12789;BME280;6458;42.710;23.192;2024-02-26T06:03:33;57554.78;;;-144.77;100.00
12789;BME280;6458;42.710;23.192;2024-02-26T06:06:01;57554.78;;;-144.77;100.00
12789;BME280;6458;42.710;23.192;2024-02-26T06:08:28;57554.78;;;-144.77;100.00
12789;BME280;6458;42.710;23.192;2024-02-26T06:10:55;57554.78;;;-144.77;100.00
12789;BME280;6458;42.710;23.192;2024-02-26T06:13:22;57554.78;;;-144.77;100.00
12789;BME280;6458;42.710;23.192;2024-02-26T06:19:10;57554.78;;;-144.77;100.00
12789;BME280;6458;42.710;23.192;2024-02-26T06:21:39;57554.78;;;-144.77;100.00
12789;BME280;6458;42.710;23.192;2024-02-26T06:24:06;57554.78;;;-144.77;100.00
12789;BME280;6458;42.710;23.192;2024-02-26T06:26:32;57554.78;;;-144.77;100.00
12789;BME280;6458;42.710;23.192;2024-02-26T06:28:59;57554.78;;;-144.77;100.00
12789;BME280;6458;42.710;23.192;2024-02-26T06:31:27;57554.78;;;-144.77;100.00
12789;BME280;6458;42.710;23.192;2024-02-26T06:33:54;57554.78;;;-144.77;100.00
12789;BME280;6458;42.710;23.192;2024-02-26T06:36:22;57554.78;;;-144.77;100.00
12789;BME280;6458;42.710;23.192;2024-02-26T06:38:50;57554.78;;;-144.77;100.00
12789;BME280;6458;42.710;23.192;2024-02-26T06:41:19;57554.78;;;-144.77;100.00
12789;BME280;6458;42.710;23.192;2024-02-26T06:43:46;57554.78;;;-144.77;100.00
12789;BME280;6458;42.710;23.192;2024-02-26T06:46:13;57554.78;;;-144.77;100.00
12789;BME280;6458;42.710;23.192;2024-02-26T06:48:41;57554.78;;;-144.77;100.00
12789;BME280;6458;42.710;23.192;2024-02-26T06:51:07;57554.78;;;-144.77;100.00
12789;BME280;6458;42.710;23.192;2024-02-26T06:53:34;57554.78;;;-144.77;100.00
12789;BME280;6458;42.710;23.192;2024-02-26T06:56:03;57554.78;;;-144.77;100.00
12789;BME280;6458;42.710;23.192;2024-02-26T06:58:31;57554.78;;;-144.77;100.00
12789;BME280;6458;42.710;23.192;2024-02-26T07:00:58;57554.78;;;-144.77;100.00
12789;BME280;6458;42.710;23.192;2024-02-26T07:03:25;57554.78;;;-144.77;100.00
12789;BME280;6458;42.710;23.192;2024-02-26T07:05:52;57554.78;;;-144.77;100.00
12789;BME280;6458;42.710;23.192;2024-02-26T07:08:19;57554.78;;;-144.77;100.00
12789;BME280;6458;42.710;23.192;2024-02-26T07:10:46;57554.78;;;-144.77;100.00
12789;BME280;6458;42.710;23.192;2024-02-26T07:13:15;57554.78;;;-144.77;100.00
12789;BME280;6458;42.710;23.192;2024-02-26T07:15:42;57554.78;;;-144.77;100.00
12789;BME280;6458;42.710;23.192;2024-02-26T07:18:08;57554.78;;;-144.77;100.00
12789;BME280;6458;42.710;23.192;2024-02-26T07:20:36;57554.78;;;-144.77;100.00
12789;BME280;6458;42.710;23.192;2024-02-26T07:23:03;57554.78;;;-144.77;100.00
12789;BME280;6458;42.710;23.192;2024-02-26T07:25:30;57554.78;;;-144.77;100.00
12789;BME280;6458;42.710;23.192;2024-02-26T07:27:57;57554.78;;;-144.77;100.00
12789;BME280;6458;42.710;23.192;2024-02-26T07:30:25;57554.78;;;-144.77;100.00
12789;BME280;6458;42.710;23.192;2024-02-26T07:32:52;57554.78;;;-144.77;100.00
12789;BME280;6458;42.710;23.192;2024-02-26T07:35:19;57554.78;;;-144.77;100.00
12789;BME280;6458;42.710;23.192;2024-02-26T07:37:48;57554.78;;;-144.77;100.00
12789;BME280;6458;42.710;23.192;2024-02-26T07:40:15;57554.78;;;-144.77;100.00
12789;BME280;6458;42.710;23.192;2024-02-26T07:42:42;57554.78;;;-144.77;100.00
12789;BME280;6458;42.710;23.192;2024-02-26T07:45:09;57554.78;;;-144.77;100.00
12789;BME280;6458;42.710;23.192;2024-02-26T07:47:38;57554.78;;;-144.77;100.00
12789;BME280;6458;42.710;23.192;2024-02-26T07:50:07;57554.78;;;-144.77;100.00
12789;BME280;6458;42.710;23.192;2024-02-26T07:52:34;57554.78;;;-144.77;100.00
12789;BME280;6458;42.710;23.192;2024-02-26T07:55:01;57554.78;;;-144.77;100.00
12789;BME280;6458;42.710;23.192;2024-02-26T07:57:29;57554.78;;;-144.77;100.00
12789;BME280;6458;42.710;23.192;2024-02-26T07:59:55;57554.78;;;-144.77;100.00
12789;BME280;6458;42.710;23.192;2024-02-26T08:02:22;57554.78;;;-144.77;100.00
12789;BME280;6458;42.710;23.192;2024-02-26T08:04:51;57554.78;;;-144.77;100.00
12789;BME280;6458;42.710;23.192;2024-02-26T08:07:18;57554.78;;;-144.77;100.00
12789;BME280;6458;42.710;23.192;2024-02-26T08:09:49;57554.78;;;-144.77;100.00
12789;BME280;6458;42.710;23.192;2024-02-26T08:12:18;57554.78;;;-144.77;100.00
12789;BME280;6458;42.710;23.192;2024-02-26T08:14:45;57554.78;;;-144.77;100.00
12789;BME280;6458;42.710;23.192;2024-02-26T08:17:12;57554.78;;;-144.77;100.00
12789;BME280;6458;42.710;23.192;2024-02-26T08:19:39;57554.78;;;-144.77;100.00
12789;BME280;6458;42.710;23.192;2024-02-26T08:22:09;57554.78;;;-144.77;100.00
12789;BME280;6458;42.710;23.192;2024-02-26T08:24:41;57554.78;;;-144.77;100.00
12789;BME280;6458;42.710;23.192;2024-02-26T08:27:08;57554.78;;;-144.77;100.00
12789;BME280;6458;42.710;23.192;2024-02-26T08:29:37;57554.78;;;-144.77;100.00
12789;BME280;6458;42.710;23.192;2024-02-26T08:32:04;57554.78;;;-144.77;100.00
12789;BME280;6458;42.710;23.192;2024-02-26T08:34:33;57554.78;;;-144.77;100.00
12789;BME280;6458;42.710;23.192;2024-02-26T08:37:00;57554.78;;;-144.77;100.00
12789;BME280;6458;42.710;23.192;2024-02-26T08:39:30;57554.78;;;-144.77;100.00
12789;BME280;6458;42.710;23.192;2024-02-26T08:41:59;57554.78;;;-144.77;100.00
12789;BME280;6458;42.710;23.192;2024-02-26T08:44:26;57554.78;;;-144.77;100.00
12789;BME280;6458;42.710;23.192;2024-02-26T08:46:53;57554.78;;;-144.77;100.00
12789;BME280;6458;42.710;23.192;2024-02-26T08:49:20;57554.78;;;-144.77;100.00
12789;BME280;6458;42.710;23.192;2024-02-26T08:51:48;57554.78;;;-144.77;100.00
12789;BME280;6458;42.710;23.192;2024-02-26T08:54:15;57554.78;;;-144.77;100.00
12789;BME280;6458;42.710;23.192;2024-02-26T08:56:44;57554.78;;;-144.77;100.00
12789;BME280;6458;42.710;23.192;2024-02-26T08:59:11;57554.78;;;-144.77;100.00
12789;BME280;6458;42.710;23.192;2024-02-26T09:01:38;57554.78;;;-144.77;100.00
12789;BME280;6458;42.710;23.192;2024-02-26T09:04:05;57554.78;;;-144.77;100.00
12789;BME280;6458;42.710;23.192;2024-02-26T09:06:31;57554.78;;;-144.77;100.00
12789;BME280;6458;42.710;23.192;2024-02-26T09:08:58;57554.78;;;-144.77;100.00
12789;BME280;6458;42.710;23.192;2024-02-26T09:11:25;57554.78;;;-144.77;100.00
12789;BME280;6458;42.710;23.192;2024-02-26T09:13:53;57554.78;;;-144.77;100.00
12789;BME280;6458;42.710;23.192;2024-02-26T09:16:20;57554.78;;;-144.77;100.00
12789;BME280;6458;42.710;23.192;2024-02-26T09:18:47;57554.78;;;-144.77;100.00
12789;BME280;6458;42.710;23.192;2024-02-26T09:21:14;57554.78;;;-144.77;100.00
12789;BME280;6458;42.710;23.192;2024-02-26T09:23:44;57554.78;;;-144.77;100.00
12789;BME280;6458;42.710;23.192;2024-02-26T09:26:10;57554.78;;;-144.77;100.00
12789;BME280;6458;42.710;23.192;2024-02-26T09:28:37;57554.78;;;-144.77;100.00
12789;BME280;6458;42.710;23.192;2024-02-26T09:31:06;57554.78;;;-144.77;100.00
12789;BME280;6458;42.710;23.192;2024-02-26T09:33:33;57554.78;;;-144.77;100.00
12789;BME280;6458;42.710;23.192;2024-02-26T09:35:59;57554.78;;;-144.77;100.00
12789;BME280;6458;42.710;23.192;2024-02-26T09:38:27;57554.78;;;-144.77;100.00
12789;BME280;6458;42.710;23.192;2024-02-26T09:40:55;57554.78;;;-144.77;100.00
12789;BME280;6458;42.710;23.192;2024-02-26T09:43:23;57554.78;;;-144.77;100.00
12789;BME280;6458;42.710;23.192;2024-02-26T09:45:50;57554.78;;;-144.77;100.00
12789;BME280;6458;42.710;23.192;2024-02-26T09:48:18;57554.78;;;-144.77;100.00
12789;BME280;6458;42.710;23.192;2024-02-26T09:50:49;57554.78;;;-144.77;100.00
12789;BME280;6458;42.710;23.192;2024-02-26T09:53:18;57554.78;;;-144.77;100.00
12789;BME280;6458;42.710;23.192;2024-02-26T09:55:48;57554.78;;;-144.77;100.00
12789;BME280;6458;42.710;23.192;2024-02-26T09:58:15;57554.78;;;-144.77;100.00
12789;BME280;6458;42.710;23.192;2024-02-26T10:00:47;57554.78;;;-144.77;100.00
12789;BME280;6458;42.710;23.192;2024-02-26T10:03:20;57554.78;;;-144.77;100.00
12789;BME280;6458;42.710;23.192;2024-02-26T10:05:49;57554.78;;;-144.77;100.00
12789;BME280;6458;42.710;23.192;2024-02-26T10:08:21;57554.78;;;-144.77;100.00
12789;BME280;6458;42.710;23.192;2024-02-26T10:10:49;57554.78;;;-144.77;100.00
12789;BME280;6458;42.710;23.192;2024-02-26T10:13:16;57554.78;;;-144.77;100.00
12789;BME280;6458;42.710;23.192;2024-02-26T10:15:45;57554.78;;;-144.77;100.00
12789;BME280;6458;42.710;23.192;2024-02-26T10:18:11;57554.78;;;-144.77;100.00
12789;BME280;6458;42.710;23.192;2024-02-26T10:20:40;57554.78;;;-144.77;100.00
12789;BME280;6458;42.710;23.192;2024-02-26T10:23:07;57554.78;;;-144.77;100.00
12789;BME280;6458;42.710;23.192;2024-02-26T10:25:33;57554.78;;;-144.77;100.00
12789;BME280;6458;42.710;23.192;2024-02-26T10:28:01;57554.78;;;-144.77;100.00
12789;BME280;6458;42.710;23.192;2024-02-26T10:30:29;57554.78;;;-144.77;100.00
12789;BME280;6458;42.710;23.192;2024-02-26T10:32:56;57554.78;;;-144.77;100.00
12789;BME280;6458;42.710;23.192;2024-02-26T10:35:23;57554.78;;;-144.77;100.00
12789;BME280;6458;42.710;23.192;2024-02-26T10:37:52;57554.78;;;-144.77;100.00
12789;BME280;6458;42.710;23.192;2024-02-26T10:40:19;57554.78;;;-144.77;100.00
12789;BME280;6458;42.710;23.192;2024-02-26T10:42:46;57554.78;;;-144.77;100.00
12789;BME280;6458;42.710;23.192;2024-02-26T10:45:13;57554.78;;;-144.77;100.00
12789;BME280;6458;42.710;23.192;2024-02-26T10:47:40;57554.78;;;-144.77;100.00
12789;BME280;6458;42.710;23.192;2024-02-26T10:50:08;57554.78;;;-144.77;100.00
12789;BME280;6458;42.710;23.192;2024-02-26T10:52:36;57554.78;;;-144.77;100.00
12789;BME280;6458;42.710;23.192;2024-02-26T10:55:05;57554.78;;;-144.77;100.00
12789;BME280;6458;42.710;23.192;2024-02-26T10:57:35;57554.78;;;-144.77;100.00
12789;BME280;6458;42.710;23.192;2024-02-26T11:00:07;57554.78;;;-144.77;100.00
12789;BME280;6458;42.710;23.192;2024-02-26T11:02:38;57554.78;;;-144.77;100.00
12789;BME280;6458;42.710;23.192;2024-02-26T11:05:07;57554.78;;;-144.77;100.00
12789;BME280;6458;42.710;23.192;2024-02-26T11:07:35;57554.78;;;-144.77;100.00
12789;BME280;6458;42.710;23.192;2024-02-26T11:10:04;57554.78;;;-144.77;100.00
12789;BME280;6458;42.710;23.192;2024-02-26T11:12:32;57554.78;;;-144.77;100.00
12789;BME280;6458;42.710;23.192;2024-02-26T11:15:01;57554.78;;;-144.77;100.00
12789;BME280;6458;42.710;23.192;2024-02-26T11:17:29;57554.78;;;-144.77;100.00
12789;BME280;6458;42.710;23.192;2024-02-26T11:19:57;57554.78;;;-144.77;100.00
12789;BME280;6458;42.710;23.192;2024-02-26T11:22:25;57554.78;;;-144.77;100.00
12789;BME280;6458;42.710;23.192;2024-02-26T11:24:53;57554.78;;;-144.77;100.00
12789;BME280;6458;42.710;23.192;2024-02-26T11:27:28;57554.78;;;-144.77;100.00
12789;BME280;6458;42.710;23.192;2024-02-26T11:29:59;57554.78;;;-144.77;100.00
12789;BME280;6458;42.710;23.192;2024-02-26T11:32:30;57554.78;;;-144.77;100.00
12789;BME280;6458;42.710;23.192;2024-02-26T11:34:57;57554.78;;;-144.77;100.00
12789;BME280;6458;42.710;23.192;2024-02-26T11:37:25;57554.78;;;-144.77;100.00
12789;BME280;6458;42.710;23.192;2024-02-26T11:39:52;57554.78;;;-144.77;100.00
12789;BME280;6458;42.710;23.192;2024-02-26T11:42:24;57554.78;;;-144.77;100.00
12789;BME280;6458;42.710;23.192;2024-02-26T11:44:51;57554.78;;;-144.77;100.00
12789;BME280;6458;42.710;23.192;2024-02-26T11:47:20;57554.78;;;-144.77;100.00
12789;BME280;6458;42.710;23.192;2024-02-26T11:49:47;57554.78;;;-144.77;100.00
12789;BME280;6458;42.710;23.192;2024-02-26T11:52:16;57554.78;;;-144.77;100.00
12789;BME280;6458;42.710;23.192;2024-02-26T11:54:46;57554.78;;;-144.77;100.00
12789;BME280;6458;42.710;23.192;2024-02-26T11:57:25;57554.78;;;-144.77;100.00
12789;BME280;6458;42.710;23.192;2024-02-26T11:59:53;57554.78;;;-144.77;100.00
12789;BME280;6458;42.710;23.192;2024-02-26T12:02:46;57554.78;;;-144.77;100.00
12789;BME280;6458;42.710;23.192;2024-02-26T12:05:14;57554.78;;;-144.77;100.00
12789;BME280;6458;42.710;23.192;2024-02-26T12:07:44;57554.78;;;-144.77;100.00
12789;BME280;6458;42.710;23.192;2024-02-26T12:10:19;57554.78;;;-144.77;100.00
12789;BME280;6458;42.710;23.192;2024-02-26T12:13:00;57554.78;;;-144.77;100.00
12789;BME280;6458;42.710;23.192;2024-02-26T12:15:31;57554.78;;;-144.77;100.00
12789;BME280;6458;42.710;23.192;2024-02-26T12:18:01;57554.78;;;-144.77;100.00
12789;BME280;6458;42.710;23.192;2024-02-26T12:20:28;57554.78;;;-144.77;100.00
12789;BME280;6458;42.710;23.192;2024-02-26T12:22:56;57554.78;;;-144.77;100.00
12789;BME280;6458;42.710;23.192;2024-02-26T12:25:24;57554.78;;;-144.77;100.00
12789;BME280;6458;42.710;23.192;2024-02-26T12:27:54;57554.78;;;-144.77;100.00
12789;BME280;6458;42.710;23.192;2024-02-26T12:30:21;57554.78;;;-144.77;100.00
12789;BME280;6458;42.710;23.192;2024-02-26T12:32:49;57554.78;;;-144.77;100.00
12789;BME280;6458;42.710;23.192;2024-02-26T12:35:17;57554.78;;;-144.77;100.00
12789;BME280;6458;42.710;23.192;2024-02-26T12:37:47;57554.78;;;-144.77;100.00
12789;BME280;6458;42.710;23.192;2024-02-26T12:40:13;57554.78;;;-144.77;100.00
12789;BME280;6458;42.710;23.192;2024-02-26T12:42:41;57554.78;;;-144.77;100.00
12789;BME280;6458;42.710;23.192;2024-02-26T12:45:11;57554.78;;;-144.77;100.00
12789;BME280;6458;42.710;23.192;2024-02-26T12:47:38;57554.78;;;-144.77;100.00